Address 0x862abead87d2d0aa72d204a50a7ce28f90c951be 1

 
 
Txn Hash Method
Block
From
To
Value [Txn Fee]
0x1634f421e15034164f1ac3162e4b392ba2f7c9645d1a1874cfd725b0777b0d65Transfer112295792021-09-25 18:42:1523 hrs 55 mins ago0x5559eceb83ef69ded73a799b778e7fe122f70e8d IN 0x862abead87d2d0aa72d204a50a7ce28f90c951be0.000377427188569 BNB0.000105
0xbb542832a2da03fed1fa9978bf3eece21f59747e2b5c41afeaa175691847561cTransfer112273702021-09-25 16:51:091 day 1 hr ago0x862abead87d2d0aa72d204a50a7ce28f90c951beOUT0x5559eceb83ef69ded73a799b778e7fe122f70e8d0.001316566687652 BNB0.000105
0x20dd4ae82354ff4c5983959e6f883a10ace4e3af1a24002e0b6f4a7f85b421f8Transfer111878532021-09-24 7:44:062 days 10 hrs ago0x862abead87d2d0aa72d204a50a7ce28f90c951beOUT BitTorrent: BTT Token0 BNB0.000194535
0x39f3743ba22c7994477d610ca7e3540ee4b2b610963689f080d7cce4fd6670a5Deposit111876532021-09-24 7:34:062 days 11 hrs ago0x862abead87d2d0aa72d204a50a7ce28f90c951beOUT 0x8d018823d13c56d62ffb795151a9e629c21e047b0 BNB0.00056072
0xaabab8f03d9a51429caeddfc4918f5ac8c516033477d83a637c7797c8b64b60aWithdraw111875412021-09-24 7:28:302 days 11 hrs ago0x862abead87d2d0aa72d204a50a7ce28f90c951beOUT 0x3b804460c3c62f0f565af593984159f13b1ac9760 BNB0.000580475
0x833579b3849f76efa15d1ae598fdcdf0ffb745a6df2ab0aa913466f3e533233fWithdraw111874832021-09-24 7:25:362 days 11 hrs ago0x862abead87d2d0aa72d204a50a7ce28f90c951beOUT 0x3b804460c3c62f0f565af593984159f13b1ac9760 BNB0.00051747
0x0a56e72ff301f43ebed964f83b15c08a331885fb639e27f56f689734488a41a3Deposit111413982021-09-22 16:47:044 days 1 hr ago0x862abead87d2d0aa72d204a50a7ce28f90c951beOUT 0xcb41a72067c227d6ed7bc7cfacd13ece47dfe5e90 BNB0.00050608
0x76516d632ec0147bcd601342ca61138ba80b56fcda4e062ebf961332e27c9209Deposit111390132021-09-22 14:46:234 days 3 hrs ago0x862abead87d2d0aa72d204a50a7ce28f90c951beOUT 0xcb41a72067c227d6ed7bc7cfacd13ece47dfe5e90 BNB0.00037231
0xede3fabf14bd2cadc04e1dcc30ea34e7fd186c4d97b244aa1b96fa68872f49ccDeposit111388692021-09-22 14:39:114 days 3 hrs ago0x862abead87d2d0aa72d204a50a7ce28f90c951beOUT 0x8d018823d13c56d62ffb795151a9e629c21e047b0 BNB0.00058964
0x8a4f38dc008b4e84c722771909ed8b9416a1f6b1327b2e03cf3b7610080f3467Approve111387592021-09-22 14:33:414 days 4 hrs ago0x862abead87d2d0aa72d204a50a7ce28f90c951beOUT PancakeSwap: CAKE Token0 BNB0.00022215
0x9ff428681885861cc22f3585c554c251307cd46e3632fa027e30f83ba3dfde76Deposit111385282021-09-22 14:22:084 days 4 hrs ago0x862abead87d2d0aa72d204a50a7ce28f90c951beOUT 0x4d1ec426d0d7fb6bf344dd372d0502edd71c8d880 BNB0.0006138
0xa6e1eb0ac5adf0b128044a3ac2fcd1d1136bcc244ce58011a2019eb6039f7537Withdraw111383632021-09-22 14:13:534 days 4 hrs ago0x862abead87d2d0aa72d204a50a7ce28f90c951beOUT 0x3b804460c3c62f0f565af593984159f13b1ac9760 BNB0.000505475
0xd4d7028b3a29200f454230528db32b422569ec4ad0f9c3975f81b4a8b0f2d4afApprove111353362021-09-22 11:42:184 days 6 hrs ago0x862abead87d2d0aa72d204a50a7ce28f90c951beOUT PancakeSwap: CAKE Token0 BNB0.00022215
0x51d16bcd04af224a6e1482e725ec3d194a17e0b591fe15e969bde89650b03ddaTransfer111350552021-09-22 11:28:154 days 7 hrs ago0x862abead87d2d0aa72d204a50a7ce28f90c951beOUT PancakeSwap: CAKE Token0 BNB0.000255575
0xe0346d822c8047575729394e504569cbf58f972183719b81eb2396d811ddde7bTransfer110563182021-09-19 17:34:057 days 1 hr ago0x862abead87d2d0aa72d204a50a7ce28f90c951beOUT Coco Swap: COCO Token0 BNB0.00059677
0x4b8709f61909ae9cc3616d7629661c5a5bb28679251db7fc4b6ba0a50cc21266Swap ETH For Exa...110562772021-09-19 17:31:597 days 1 hr ago0x862abead87d2d0aa72d204a50a7ce28f90c951beOUT PancakeSwap: Router v20.017906725441697 BNB0.00108674
0xd291b7694ac5acf921fa8237a70c6ce56a769b8e200a5830ca17d75f38a01321Deposit110557932021-09-19 17:07:477 days 1 hr ago0x862abead87d2d0aa72d204a50a7ce28f90c951beOUT 0x8ed7acf12b08274d5cdaf03d43d0e54bcbdd487e0 BNB0.0005062
0x0d4443017a1645e16dec412d3c7bbc48df0d57fee99e74a86ed97585dabe3cb8Swap Exact Token...110555602021-09-19 16:56:087 days 1 hr ago0x862abead87d2d0aa72d204a50a7ce28f90c951beOUT 0xda5884f0ae3eef8baa4d11cf9278323fe049d5360 BNB0.000477305
0xb86ee785cfcf9883302d6363f36a2bdde2184c47d452fd60a926120fbd0151fcDeposit110555402021-09-19 16:55:087 days 1 hr ago0x862abead87d2d0aa72d204a50a7ce28f90c951beOUT 0x28fcdff5598e90b3c13f21628ac4592140039a110 BNB0.000418055
0x02c67fb148859172bbd1722e1d3592e7927d2280960e26dd9a0bca99a39ae3e6Remove Liquidity...110554172021-09-19 16:48:597 days 1 hr ago0x862abead87d2d0aa72d204a50a7ce28f90c951beOUT 0xda5884f0ae3eef8baa4d11cf9278323fe049d5360 BNB0.000899025
0xc3221a19fc09e54fa925bc647ac731768feedb580f3d5c51146a46b24d720963Approve110554102021-09-19 16:48:387 days 1 hr ago0x862abead87d2d0aa72d204a50a7ce28f90c951beOUT 0x5a2d6086f74d9e2e64d88464bdf50ed4e248a0ab0 BNB0.00022143
0x51af6d99c1e83135984a9966f9f07b7049af71b49847e0c05a263c2af3834125Swap Exact Token...110546602021-09-19 16:11:087 days 2 hrs ago0x862abead87d2d0aa72d204a50a7ce28f90c951beOUT 0xda5884f0ae3eef8baa4d11cf9278323fe049d5360 BNB0.000552185
0x39bcde9e99d0386e45806d0eca5ffd435e9638849a2062ad91051d1772c7be6fSwap Exact Token...110546452021-09-19 16:10:237 days 2 hrs ago0x862abead87d2d0aa72d204a50a7ce28f90c951beOUT 0xda5884f0ae3eef8baa4d11cf9278323fe049d5360 BNB0.000552185
0x4b4c8132fb626b4d63228101d3dd065721b60db8635669c79496066fac0fe8adSwap Exact Token...110546292021-09-19 16:09:357 days 2 hrs ago0x862abead87d2d0aa72d204a50a7ce28f90c951beOUT 0xda5884f0ae3eef8baa4d11cf9278323fe049d5360 BNB0.000552185
0x16e7d6d807bf6865d9e3e1df8a7a2cc0fe0f07b5ce8c9b70969e38fc5a38e08eSwap Exact Token...110546162021-09-19 16:08:567 days 2 hrs ago0x862abead87d2d0aa72d204a50a7ce28f90c951beOUT 0xda5884f0ae3eef8baa4d11cf9278323fe049d5360 BNB0.000627305
[ Download CSV Export 
Latest 4 internal transactions
Parent Txn Hash Block From To Value
0x4b8709f61909ae9cc3616d7629661c5a5bb28679251db7fc4b6ba0a50cc21266110562772021-09-19 17:31:597 days 1 hr ago PancakeSwap: Router v20x862abead87d2d0aa72d204a50a7ce28f90c951be0.002335659840221452 BNB
0x02c67fb148859172bbd1722e1d3592e7927d2280960e26dd9a0bca99a39ae3e6110554172021-09-19 16:48:597 days 1 hr ago 0xda5884f0ae3eef8baa4d11cf9278323fe049d5360x862abead87d2d0aa72d204a50a7ce28f90c951be0.023389667289128623 BNB
0xeeac768b6548121273a234033546ce240a84ad6c2da3c964d87f67dceeb4895891269732021-07-13 17:52:4275 days 44 mins ago PancakeSwap: Router v20x862abead87d2d0aa72d204a50a7ce28f90c951be0.000269163579624203 BNB
0x969cc92c892de437b6097ef59eb1fdd737072f653fbadfd682975b2a21f32a7574052652021-05-14 14:29:09135 days 4 hrs ago PancakeSwap: Router v20x862abead87d2d0aa72d204a50a7ce28f90c951be0.016002019338778973 BNB
[ Download CSV Export 
Loading

Contract Name:
0 BNB

Compiler Version
0

Optimization Enabled:
0 BNB

Other Settings:
-NA-
Block Transaction Gas Used Reward
Age Block Fee Address BC Fee Address Voting Power Jailed Incoming
Block Uncle Number Difficulty Gas Used Reward
Loading
Loading
Make sure to use the "Vote Down" button for any spammy posts, and the "Vote Up" for interesting conversations.